Perg, Austria
Current Conditions -  °F | °C
As of 11:20 AM on Sunday 26 Oct 2014 (Local Time) from LOWL Reporting Station
Haze Haze  
Wind Chill: 46°   Ceiling: 2000
Heat Index: 46°   Visibility: 3mi
Dew Point: 43°   Wind: 2mph
Humidity: 87%   Direction: NA
Pressure: 30.39"   Gusts: NA
Location:  48.25°N, 14.62°E
Report Text: LOWL 260920Z VRB02KT 5000 BR FEW008 BKN020 08/06 Q1029 NOSIG
Loading
Personal Weather Stations






























Interactive Weather Map
Tropical Storm Tracking
New forecast layout! Learn more

10-Day Weather Forecast

Advertisements
Track Severe Weather on mobile